This is the latest recevied weather packets stored in our database for station/object TAPIOLA. If no packets are shown the sender has not sent any weather packets the latest 10 day(s).
| Time | Temp. | Humidity | Pressure | Rain* | Wind** | Luminosity | Snow |
|---|---|---|---|---|---|---|---|
| 1777714022 | 15.56° C | 52% | 1010.5 hPa | 0 mm | - | - | - |
| 1777712822 | 15° C | 55% | 1010.6 hPa | 0 mm | - | - | - |
| 1777711622 | 16.67° C | 51% | 1010.7 hPa | 0 mm | - | - | - |
| 1777710422 | 14.44° C | 56% | 1010.8 hPa | 0 mm | - | - | - |
| 1777709222 | 15.56° C | 53% | 1010.9 hPa | 0 mm | - | - | - |
| 1777708022 | 16.11° C | 53% | 1010.9 hPa | 0 mm | - | - | - |
| 1777706821 | 16.11° C | 48% | 1011 hPa | 0 mm | - | - | - |
| 1777705621 | 14.44° C | 53% | 1011 hPa | 0 mm | - | - | - |
| 1777704421 | 13.33° C | 58% | 1011.1 hPa | 0 mm | - | - | - |
| 1777703221 | 12.22° C | 61% | 1011.2 hPa | 0 mm | - | - | - |
| 1777702021 | 11.67° C | 63% | 1011.4 hPa | 0 mm | - | - | - |
| 1777700821 | 10° C | 69% | 1011.4 hPa | 0 mm | - | - | - |
| 1777699621 | 8.89° C | 74% | 1011.5 hPa | 0 mm | - | - | - |
| 1777698421 | 7.78° C | 79% | 1011.7 hPa | 0 mm | - | - | - |
| 1777697221 | 6.67° C | 84% | 1011.7 hPa | 0 mm | - | - | - |
| 1777696021 | 6.11° C | 89% | 1011.9 hPa | 0 mm | - | - | - |
| 1777694820 | 5° C | 97% | 1012 hPa | 0 mm | - | - | - |
| 1777693621 | 3.89° C | 99% | 1012.1 hPa | 0 mm | - | - | - |
| 1777692420 | 3.33° C | 99% | 1012 hPa | 0 mm | - | - | - |
| 1777691221 | 3.33° C | 99% | 1012.2 hPa | 0 mm | - | - | - |
| 1777690020 | 2.78° C | 99% | 1012.4 hPa | 0 mm | - | - | - |
| 1777688821 | 3.33° C | 98% | 1012.7 hPa | 0 mm | - | - | - |
| 1777687620 | 3.33° C | 97% | 1013 hPa | 0 mm | - | - | - |
| 1777686420 | 3.89° C | 97% | 1013.2 hPa | 0 mm | - | - | - |
| 1777685220 | 3.89° C | 95% | 1013.1 hPa | 0 mm | - | - | - |
* Rain latest hour (hover to see other rain measurements)
** Current wind speed in m/s (hover to see current wind gust speed)